createdAt,value
2019-05-30T00:01:17.137Z,7.75
2019-05-30T00:03:49.231Z,8.45
2019-05-30T00:06:20.140Z,8.15
2019-05-30T00:08:51.172Z,9.30
2019-05-30T00:11:22.029Z,9.38
2019-05-30T00:13:54.469Z,8.68
2019-05-30T00:16:25.811Z,9.13
2019-05-30T00:18:56.827Z,9.13
2019-05-30T00:21:27.685Z,8.45
2019-05-30T00:24:00.085Z,9.58
2019-05-30T00:26:31.085Z,8.70
2019-05-30T00:29:04.514Z,8.65
2019-05-30T00:31:35.871Z,9.38
2019-05-30T00:34:06.860Z,8.15
2019-05-30T00:36:38.068Z,7.62
2019-05-30T00:39:11.202Z,9.40
2019-05-30T00:41:44.658Z,8.48
2019-05-30T00:44:18.793Z,8.95
2019-05-30T00:46:51.015Z,11.55
2019-05-30T00:49:24.929Z,9.70
2019-05-30T00:51:58.352Z,10.00
2019-05-30T00:54:42.096Z,10.20
2019-05-30T00:57:20.096Z,8.65
2019-05-30T00:59:51.307Z,9.28
2019-05-30T01:02:27.000Z,8.75
2019-05-30T01:05:18.417Z,8.90
2019-05-30T01:07:49.636Z,9.33
2019-05-30T01:10:24.433Z,8.28
2019-05-30T01:12:56.830Z,9.13
2019-05-30T01:15:28.830Z,8.45
2019-05-30T01:18:01.068Z,7.92
2019-05-30T01:20:34.568Z,8.13
2019-05-30T01:23:05.499Z,8.53
2019-05-30T01:25:38.800Z,8.33
2019-05-30T01:28:13.526Z,9.75
2019-05-30T01:30:59.091Z,8.75
2019-05-30T01:33:18.071Z,8.60
2019-05-30T01:35:50.247Z,9.38
2019-05-30T01:38:21.531Z,8.60
2019-05-30T01:40:52.885Z,9.33
2019-05-30T01:43:24.026Z,8.85
2019-05-30T01:45:57.951Z,8.95
2019-05-30T01:48:27.333Z,8.80
2019-05-30T01:50:58.554Z,8.78
2019-05-30T01:53:29.456Z,9.38
2019-05-30T01:56:02.718Z,8.55
2019-05-30T01:58:34.053Z,8.78
2019-05-30T02:01:19.169Z,8.70
2019-05-30T02:03:42.367Z,8.88
2019-05-30T02:06:18.202Z,8.35
2019-05-30T02:08:49.973Z,9.18
2019-05-30T02:11:20.934Z,9.05
2019-05-30T02:13:51.841Z,8.18
2019-05-30T02:16:25.591Z,8.33
2019-05-30T02:18:56.582Z,8.73
2019-05-30T02:21:28.287Z,7.75
2019-05-30T02:23:59.783Z,8.25
2019-05-30T02:26:30.880Z,9.03
2019-05-30T02:29:04.102Z,7.00
2019-05-30T02:31:38.982Z,7.97
2019-05-30T02:34:12.260Z,8.38
2019-05-30T02:36:48.187Z,9.53
2019-05-30T02:39:19.727Z,7.90
2019-05-30T02:41:51.784Z,7.58
2019-05-30T02:44:25.411Z,7.85
2019-05-30T02:46:57.558Z,6.87
2019-05-30T02:49:28.789Z,8.03
2019-05-30T02:52:04.793Z,7.90
2019-05-30T02:54:46.186Z,8.98
2019-05-30T02:57:17.197Z,8.08
2019-05-30T02:59:49.096Z,7.33
2019-05-30T03:02:20.217Z,8.28
2019-05-30T03:04:57.553Z,7.22
2019-05-30T03:07:31.314Z,7.15
2019-05-30T03:10:05.110Z,7.00
2019-05-30T03:12:35.720Z,6.85
2019-05-30T03:15:11.604Z,6.53
2019-05-30T03:17:41.016Z,7.30
2019-05-30T03:20:22.101Z,6.97
2019-05-30T03:22:46.384Z,6.83
2019-05-30T03:25:18.318Z,7.17
2019-05-30T03:27:50.490Z,7.28
2019-05-30T03:30:28.247Z,7.37
2019-05-30T03:33:11.990Z,12.40
2019-05-30T03:35:32.773Z,14.05
2019-05-30T03:38:05.817Z,15.15
2019-05-30T03:40:36.600Z,10.98
2019-05-30T03:43:11.122Z,8.88
2019-05-30T03:45:43.380Z,7.72
2019-05-30T03:48:16.729Z,7.25
2019-05-30T03:50:50.018Z,7.50
2019-05-30T03:53:21.460Z,11.53
2019-05-30T03:56:02.009Z,12.75
2019-05-30T03:58:45.439Z,12.10
2019-05-30T04:01:19.505Z,8.35
2019-05-30T04:06:24.437Z,7.28
2019-05-30T04:08:58.556Z,6.62
2019-05-30T04:11:32.172Z,7.22
2019-05-30T04:14:06.801Z,7.28
2019-05-30T04:16:37.577Z,13.15
2019-05-30T04:19:10.113Z,15.83
2019-05-30T04:21:41.075Z,12.93
2019-05-30T04:24:14.538Z,8.50
2019-05-30T04:26:45.471Z,7.85
2019-05-30T04:29:20.289Z,7.47
2019-05-30T04:31:51.708Z,9.35
2019-05-30T04:34:24.632Z,8.75
2019-05-30T04:37:06.065Z,10.45
2019-05-30T04:39:37.176Z,8.80
2019-05-30T04:42:13.640Z,10.58
2019-05-30T04:44:51.248Z,7.17
2019-05-30T04:47:27.946Z,6.85
2019-05-30T04:50:16.167Z,6.83
2019-05-30T04:52:51.466Z,8.25
2019-05-30T04:55:23.099Z,9.38
2019-05-30T04:57:58.822Z,12.28
2019-05-30T05:00:30.766Z,13.35
2019-05-30T05:03:01.738Z,10.18
2019-05-30T05:05:32.634Z,9.18
2019-05-30T05:08:04.707Z,7.65
2019-05-30T05:10:40.637Z,9.60
2019-05-30T05:13:14.044Z,16.10
2019-05-30T05:15:46.456Z,9.73
2019-05-30T05:18:19.276Z,13.35
2019-05-30T05:20:50.568Z,11.03
2019-05-30T05:23:24.855Z,9.65
2019-05-30T05:26:00.728Z,10.05
2019-05-30T05:28:29.227Z,8.70
2019-05-30T05:31:01.046Z,8.33
2019-05-30T05:33:32.289Z,13.08
2019-05-30T05:36:06.842Z,13.78
2019-05-30T05:38:37.839Z,9.33
2019-05-30T05:41:08.799Z,10.63
2019-05-30T05:43:41.179Z,8.28
2019-05-30T05:46:12.553Z,8.95
2019-05-30T05:48:43.859Z,7.50
2019-05-30T05:51:14.680Z,8.18
2019-05-30T05:53:48.472Z,10.03
2019-05-30T05:56:19.471Z,15.40
2019-05-30T05:58:51.512Z,17.17
2019-05-30T06:01:23.371Z,13.32
2019-05-30T06:03:55.477Z,9.93
2019-05-30T06:06:27.367Z,6.40
2019-05-30T06:08:59.149Z,6.03
2019-05-30T06:11:30.178Z,6.20
2019-05-30T06:14:05.305Z,12.63
2019-05-30T06:16:37.066Z,8.40
2019-05-30T06:19:09.310Z,25.80
2019-05-30T06:21:53.615Z,17.45
2019-05-30T06:24:19.512Z,8.68
2019-05-30T06:26:51.003Z,7.30
2019-05-30T06:29:24.117Z,6.28
2019-05-30T06:31:55.216Z,9.38
2019-05-30T06:34:35.532Z,9.83
2019-05-30T06:36:59.272Z,9.58
2019-05-30T06:39:31.586Z,12.40
2019-05-30T06:51:55.365Z,6.42
2019-05-30T06:54:27.711Z,6.92
2019-05-30T06:56:59.314Z,7.35
2019-05-30T06:59:30.196Z,10.98
2019-05-30T07:02:06.556Z,3.27
2019-05-30T07:04:50.888Z,2.47
2019-05-30T07:07:13.875Z,2.70
2019-05-30T07:09:45.663Z,2.80
2019-05-30T07:12:16.598Z,4.55
2019-05-30T07:14:48.903Z,8.65
2019-05-30T07:17:25.237Z,9.90
2019-05-30T07:19:56.810Z,8.40
2019-05-30T07:22:31.870Z,4.28
2019-05-30T07:25:01.600Z,4.30
2019-05-30T07:27:35.532Z,3.58
2019-05-30T07:30:09.783Z,3.70
2019-05-30T07:32:41.742Z,5.58
2019-05-30T07:35:13.329Z,5.25
2019-05-30T07:37:46.705Z,7.55
2019-05-30T07:40:20.571Z,11.43
2019-05-30T07:42:55.243Z,4.25
2019-05-30T07:45:26.867Z,4.62
2019-05-30T07:47:57.848Z,4.60
2019-05-30T07:50:30.353Z,4.10
2019-05-30T07:53:02.212Z,6.85
2019-05-30T07:55:37.532Z,7.97
2019-05-30T07:58:11.332Z,9.23
2019-05-30T08:00:45.799Z,7.03
2019-05-30T08:03:16.976Z,3.80
2019-05-30T08:05:48.146Z,3.25
2019-05-30T08:08:21.406Z,3.37
2019-05-30T08:11:09.041Z,3.47
2019-05-30T08:13:29.223Z,5.28
2019-05-30T08:16:06.386Z,8.23
2019-05-30T08:18:37.930Z,5.60
2019-05-30T08:21:10.012Z,8.48
2019-05-30T08:23:43.703Z,3.05
2019-05-30T08:26:17.728Z,2.92
2019-05-30T08:28:47.066Z,3.08
2019-05-30T08:31:19.238Z,2.98
2019-05-30T08:33:51.172Z,5.37
2019-05-30T08:36:24.374Z,8.50
2019-05-30T08:38:55.905Z,12.00
2019-05-30T08:41:31.085Z,7.65
2019-05-30T08:44:05.479Z,3.60
2019-05-30T08:46:37.965Z,5.37
2019-05-30T08:49:09.081Z,3.02
2019-05-30T08:51:41.327Z,4.37
2019-05-30T08:54:13.914Z,9.78
2019-05-30T08:56:45.251Z,6.25
2019-05-30T08:59:18.161Z,13.58
2019-05-30T09:01:52.870Z,8.70
2019-05-30T09:04:22.242Z,5.22
2019-05-30T09:06:53.509Z,3.35
2019-05-30T09:09:24.497Z,2.77
2019-05-30T09:11:56.540Z,3.52
2019-05-30T09:14:28.337Z,4.00
2019-05-30T09:16:59.865Z,4.17
2019-05-30T09:19:30.763Z,5.58
2019-05-30T09:22:03.888Z,4.10
2019-05-30T09:24:38.715Z,4.50
2019-05-30T09:27:12.486Z,3.65
2019-05-30T09:29:44.615Z,3.20
2019-05-30T09:32:15.874Z,3.58
2019-05-30T09:34:49.158Z,3.62
2019-05-30T09:37:19.959Z,4.00
2019-05-30T09:39:51.011Z,3.87
2019-05-30T09:42:21.966Z,3.60
2019-05-30T09:44:53.271Z,3.95
2019-05-30T09:47:25.327Z,3.50
2019-05-30T09:49:57.741Z,3.62
2019-05-30T09:52:28.927Z,4.53
2019-05-30T09:55:00.290Z,4.35
2019-05-30T09:57:32.880Z,3.40
2019-05-30T10:00:04.114Z,3.35
2019-05-30T10:02:36.073Z,3.45
2019-05-30T10:18:28.078Z,4.70
2019-05-30T10:21:00.216Z,4.78
2019-05-30T10:23:31.495Z,5.10
2019-05-30T10:26:02.509Z,4.92
2019-05-30T10:28:33.826Z,5.70
2019-05-30T10:31:04.889Z,5.95
2019-05-30T10:33:36.086Z,4.75
2019-05-30T10:36:08.556Z,5.00
2019-05-30T10:38:39.656Z,4.87
2019-05-30T10:41:10.980Z,5.00
2019-05-30T10:43:42.162Z,5.15
2019-05-30T10:46:13.301Z,4.80
2019-05-30T10:48:44.569Z,6.25
2019-05-30T10:51:15.756Z,4.00
2019-05-30T10:53:48.580Z,4.15
2019-05-30T10:56:19.444Z,4.25
2019-05-30T10:58:50.731Z,4.97
2019-05-30T11:01:22.045Z,5.10
2019-05-30T11:03:53.255Z,5.45
2019-05-30T11:06:26.745Z,4.78
2019-05-30T11:08:59.801Z,4.60
2019-05-30T11:11:31.907Z,4.78
2019-05-30T11:14:03.013Z,4.37
2019-05-30T11:16:35.364Z,4.03
2019-05-30T11:19:07.655Z,3.62
2019-05-30T11:21:40.395Z,4.12
2019-05-30T11:24:11.609Z,3.55
2019-05-30T11:26:42.908Z,3.58
2019-05-30T11:29:14.065Z,4.22
2019-05-30T11:31:45.167Z,4.85
2019-05-30T11:34:16.187Z,3.80
2019-05-30T11:36:53.179Z,4.20
2019-05-30T11:39:24.009Z,4.55
2019-05-30T11:41:55.386Z,4.70
2019-05-30T11:44:26.295Z,5.20
2019-05-30T11:46:57.760Z,3.20
2019-05-30T11:49:28.597Z,2.20
2019-05-30T11:51:59.994Z,2.15
2019-05-30T11:54:30.849Z,1.50
2019-05-30T11:57:02.064Z,1.20
2019-05-30T11:59:32.876Z,1.42
2019-05-30T12:02:03.637Z,1.27
2019-05-30T12:04:34.992Z,1.05
2019-05-30T12:07:09.098Z,1.12
2019-05-30T12:09:40.262Z,1.37
2019-05-30T12:12:11.350Z,1.30
2019-05-30T12:14:42.304Z,1.40
2019-05-30T12:17:14.406Z,1.30
2019-05-30T12:19:46.783Z,1.32
2019-05-30T12:22:17.464Z,1.17
2019-05-30T12:24:48.564Z,1.35
2019-05-30T12:27:19.748Z,1.45
2019-05-30T12:29:51.982Z,1.60
2019-05-30T12:32:23.356Z,1.42
2019-05-30T12:34:54.449Z,1.55
2019-05-30T12:37:25.501Z,1.42
2019-05-30T12:39:56.525Z,1.42
2019-05-30T12:42:30.472Z,1.80
2019-05-30T12:45:06.661Z,1.98
2019-05-30T12:47:34.391Z,1.77
2019-05-30T12:50:06.694Z,2.00
2019-05-30T12:52:38.058Z,2.27
2019-05-30T12:55:12.158Z,2.55
2019-05-30T12:57:43.380Z,2.52
2019-05-30T13:00:19.213Z,3.10
2019-05-30T13:02:54.634Z,3.10
2019-05-30T13:05:25.993Z,2.80
2019-05-30T13:08:11.772Z,2.45
2019-05-30T13:10:32.546Z,2.17
2019-05-30T13:13:04.052Z,2.10
2019-05-30T13:15:35.237Z,2.12
2019-05-30T13:18:07.175Z,2.58
2019-05-30T13:20:38.415Z,2.30
2019-05-30T13:23:11.030Z,2.37
2019-05-30T13:25:42.287Z,1.62
2019-05-30T13:28:13.064Z,1.92
2019-05-30T13:30:44.122Z,2.00
2019-05-30T13:33:15.451Z,2.45
2019-05-30T13:35:46.611Z,2.02
2019-05-30T13:38:26.059Z,2.37
2019-05-30T13:40:50.046Z,1.98
2019-05-30T13:43:20.844Z,1.90
2019-05-30T13:45:52.041Z,2.05
2019-05-30T13:48:23.891Z,2.20
2019-05-30T13:50:54.702Z,2.45
2019-05-30T13:53:29.013Z,2.33
2019-05-30T13:56:01.367Z,2.92
2019-05-30T13:58:32.218Z,2.55
2019-05-30T14:01:07.507Z,2.67
2019-05-30T14:03:36.305Z,2.80
2019-05-30T14:06:08.231Z,2.47
2019-05-30T14:08:42.029Z,2.25
2019-05-30T14:11:13.468Z,2.20
2019-05-30T14:13:44.563Z,2.30
2019-05-30T14:16:15.395Z,2.90
2019-05-30T14:18:47.696Z,2.58
2019-05-30T14:21:18.884Z,3.30
2019-05-30T14:23:49.926Z,2.70
2019-05-30T14:26:21.110Z,2.58
2019-05-30T14:28:52.411Z,3.08
2019-05-30T14:31:23.303Z,3.00
2019-05-30T14:33:54.599Z,2.72
2019-05-30T14:36:25.864Z,2.92
2019-05-30T14:38:58.809Z,2.90
2019-05-30T14:41:29.073Z,3.20
2019-05-30T14:44:00.278Z,3.65
2019-05-30T14:46:32.856Z,3.10
2019-05-30T14:49:04.455Z,4.00
2019-05-30T14:51:35.615Z,4.08
2019-05-30T14:54:07.043Z,3.72
2019-05-30T14:56:38.434Z,4.22
2019-05-30T14:59:09.411Z,4.12
2019-05-30T15:01:41.040Z,3.70
2019-05-30T15:04:13.326Z,4.62
2019-05-30T15:06:44.527Z,4.03
2019-05-30T15:09:25.587Z,4.50
2019-05-30T15:11:48.259Z,4.40
2019-05-30T15:14:19.431Z,4.08
2019-05-30T15:16:50.479Z,4.50
2019-05-30T15:19:21.582Z,3.98
2019-05-30T15:21:52.904Z,4.20
2019-05-30T15:24:23.981Z,3.98
2019-05-30T15:26:55.155Z,4.05
2019-05-30T15:29:26.485Z,4.45
2019-05-30T15:31:58.451Z,4.25
2019-05-30T15:34:29.332Z,4.60
2019-05-30T15:37:00.517Z,4.08
2019-05-30T15:39:33.008Z,3.95
2019-05-30T15:42:03.858Z,3.45
2019-05-30T15:44:34.628Z,4.50
2019-05-30T15:47:05.551Z,4.58
2019-05-30T15:49:36.840Z,4.65
2019-05-30T15:52:08.676Z,4.83
2019-05-30T15:54:39.728Z,4.40
2019-05-30T15:57:11.161Z,4.47
2019-05-30T15:59:41.966Z,4.20
2019-05-30T16:02:13.988Z,5.33
2019-05-30T16:04:46.188Z,4.50
2019-05-30T16:07:16.834Z,4.03
2019-05-30T16:09:50.732Z,5.17
2019-05-30T16:12:21.790Z,4.58
2019-05-30T16:14:52.845Z,4.67
2019-05-30T16:17:23.728Z,5.15
2019-05-30T16:19:54.452Z,5.05
2019-05-30T16:22:25.488Z,4.53
2019-05-30T16:24:56.632Z,4.22
2019-05-30T16:27:31.020Z,4.30
2019-05-30T16:30:00.413Z,4.45
2019-05-30T16:32:31.253Z,4.65
2019-05-30T16:35:02.303Z,3.80
2019-05-30T16:37:33.316Z,5.08
2019-05-30T16:40:06.750Z,4.42
2019-05-30T16:42:37.113Z,4.45
2019-05-30T16:45:09.615Z,4.92
2019-05-30T16:47:40.848Z,4.28
2019-05-30T16:50:12.938Z,4.03
2019-05-30T16:52:44.205Z,4.28
2019-05-30T16:55:15.492Z,4.05
2019-05-30T16:57:46.656Z,3.62
2019-05-30T17:00:18.042Z,4.20
2019-05-30T17:02:48.978Z,4.33
2019-05-30T17:05:20.306Z,4.53
2019-05-30T17:07:51.219Z,4.03
2019-05-30T17:10:29.521Z,3.87
2019-05-30T17:12:54.718Z,4.22
2019-05-30T17:15:26.059Z,4.25
2019-05-30T17:17:56.969Z,4.37
2019-05-30T17:20:28.251Z,4.20
2019-05-30T17:22:59.451Z,4.33
2019-05-30T17:25:30.780Z,5.20
2019-05-30T17:28:01.698Z,4.47
2019-05-30T17:30:32.718Z,4.67
2019-05-30T17:33:03.829Z,4.95
2019-05-30T17:35:34.669Z,4.10
2019-05-30T17:38:05.509Z,4.42
2019-05-30T17:40:44.736Z,4.37
2019-05-30T17:43:09.598Z,4.30
2019-05-30T17:45:40.710Z,4.78
2019-05-30T17:48:16.430Z,5.10
2019-05-30T17:50:43.996Z,4.22
2019-05-30T17:53:14.992Z,4.85
2019-05-30T17:55:45.992Z,5.17
2019-05-30T17:58:16.939Z,4.62
2019-05-30T18:00:47.999Z,5.20
2019-05-30T18:03:18.806Z,5.12
2019-05-30T18:05:49.662Z,4.70
2019-05-30T18:08:20.974Z,4.72
2019-05-30T18:10:54.039Z,4.78
2019-05-30T18:13:25.035Z,5.33
2019-05-30T18:15:55.967Z,4.83
2019-05-30T18:18:27.306Z,4.83
2019-05-30T18:20:58.445Z,4.37
2019-05-30T18:23:29.846Z,5.30
2019-05-30T18:26:00.759Z,4.87
2019-05-30T18:28:32.076Z,4.92
2019-05-30T18:31:03.477Z,4.60
2019-05-30T18:33:34.438Z,5.37
2019-05-30T18:36:05.743Z,5.20
2019-05-30T18:38:36.938Z,5.55
2019-05-30T18:41:11.431Z,4.95
2019-05-30T18:43:40.239Z,4.85
2019-05-30T18:46:11.349Z,4.83
2019-05-30T18:48:42.381Z,4.47
2019-05-30T18:51:13.522Z,4.28
2019-05-30T18:53:44.617Z,4.37
2019-05-30T18:56:15.541Z,4.87
2019-05-30T18:58:46.603Z,4.28
2019-05-30T19:01:17.833Z,4.95
2019-05-30T19:03:48.776Z,4.65
2019-05-30T19:06:19.448Z,4.47
2019-05-30T19:08:50.381Z,4.60
2019-05-30T19:11:28.129Z,4.97
2019-05-30T19:13:54.118Z,4.72
2019-05-30T19:16:26.233Z,5.20
2019-05-30T19:18:57.236Z,5.10
2019-05-30T19:21:28.211Z,4.67
2019-05-30T19:23:59.202Z,4.95
2019-05-30T19:26:30.437Z,4.12
2019-05-30T19:29:01.640Z,4.58
2019-05-30T19:31:32.727Z,4.53
2019-05-30T19:34:03.801Z,4.95
2019-05-30T19:36:35.231Z,4.22
2019-05-30T19:39:08.040Z,4.45
2019-05-30T19:41:52.580Z,4.33
2019-05-30T19:44:11.347Z,4.33
2019-05-30T19:46:42.308Z,5.75
2019-05-30T19:49:14.546Z,4.87
2019-05-30T19:51:45.673Z,4.83
2019-05-30T19:54:16.447Z,5.25
2019-05-30T19:56:47.824Z,4.53
2019-05-30T19:59:18.873Z,5.83
2019-05-30T20:01:50.158Z,6.15
2019-05-30T20:04:21.074Z,5.92
2019-05-30T20:06:51.938Z,5.60
2019-05-30T20:09:22.653Z,5.70
2019-05-30T20:12:02.860Z,5.08
2019-05-30T20:14:25.909Z,4.30
2019-05-30T20:16:56.958Z,4.65
2019-05-30T20:19:28.162Z,5.05
2019-05-30T20:22:00.445Z,4.78
2019-05-30T20:24:32.068Z,4.20
2019-05-30T20:27:03.158Z,4.83
2019-05-30T20:29:34.980Z,4.83
2019-05-30T20:32:06.006Z,5.08
2019-05-30T20:34:40.835Z,5.47
2019-05-30T20:37:14.684Z,4.90
2019-05-30T20:39:47.225Z,4.92
2019-05-30T20:42:19.479Z,5.08
2019-05-30T20:44:51.071Z,5.20
2019-05-30T20:47:21.846Z,5.65
2019-05-30T20:49:53.005Z,5.65
2019-05-30T20:52:23.986Z,5.78
2019-05-30T20:54:57.768Z,5.60
2019-05-30T20:57:28.617Z,5.95
2019-05-30T20:59:59.629Z,5.58
2019-05-30T21:02:30.978Z,5.80
2019-05-30T21:05:01.903Z,5.65
2019-05-30T21:07:33.484Z,6.62
2019-05-30T21:10:05.227Z,5.40
2019-05-30T21:12:44.391Z,6.08
2019-05-30T21:15:14.149Z,5.80
2019-05-30T21:17:47.705Z,5.78
2019-05-30T21:20:18.899Z,5.28
2019-05-30T21:22:50.024Z,5.60
2019-05-30T21:25:21.528Z,5.47
2019-05-30T21:27:52.393Z,6.47
2019-05-30T21:30:24.161Z,6.17
2019-05-30T21:32:57.963Z,5.90
2019-05-30T21:35:28.912Z,5.35
2019-05-30T21:38:00.046Z,5.67
2019-05-30T21:40:31.127Z,5.42
2019-05-30T21:43:06.661Z,5.47
2019-05-30T21:45:34.424Z,5.70
2019-05-30T21:48:05.654Z,6.08
2019-05-30T21:50:36.488Z,6.20
2019-05-30T21:53:07.342Z,5.97
2019-05-30T21:55:39.534Z,5.50
2019-05-30T21:58:13.160Z,5.65
2019-05-30T22:00:46.916Z,5.47
2019-05-30T22:03:18.062Z,5.55
2019-05-30T22:05:49.878Z,5.92
2019-05-30T22:08:21.481Z,5.90
2019-05-30T22:10:52.427Z,6.10
2019-05-30T22:13:23.488Z,5.30
2019-05-30T22:15:54.252Z,5.37
2019-05-30T22:18:25.455Z,5.70
2019-05-30T22:20:56.597Z,5.78
2019-05-30T22:23:27.375Z,4.95
2019-05-30T22:25:58.534Z,6.33
2019-05-30T22:28:29.705Z,5.85
2019-05-30T22:31:00.667Z,6.28
2019-05-30T22:33:31.841Z,6.28
2019-05-30T22:36:02.685Z,6.45
2019-05-30T22:38:33.618Z,5.97
2019-05-30T22:41:04.781Z,6.15
2019-05-30T22:43:37.030Z,6.50
2019-05-30T22:46:08.270Z,6.35
2019-05-30T22:48:39.421Z,5.92
2019-05-30T22:51:11.326Z,5.62
2019-05-30T22:53:42.520Z,5.72
2019-05-30T22:56:13.478Z,5.30
2019-05-30T22:58:45.439Z,6.37
2019-05-30T23:01:16.806Z,6.10
2019-05-30T23:03:49.066Z,6.03
2019-05-30T23:06:20.107Z,6.45
2019-05-30T23:08:51.133Z,6.75
2019-05-30T23:11:21.960Z,6.72
2019-05-30T23:13:53.925Z,7.15
2019-05-30T23:16:25.506Z,6.58
2019-05-30T23:18:56.857Z,7.22
2019-05-30T23:21:28.151Z,6.78
2019-05-30T23:23:59.249Z,7.47
2019-05-30T23:26:31.259Z,7.20
2019-05-30T23:29:03.458Z,7.30
2019-05-30T23:31:34.638Z,7.17
2019-05-30T23:34:05.550Z,8.20
2019-05-30T23:36:36.485Z,8.78
2019-05-30T23:39:08.827Z,8.48
2019-05-30T23:41:39.829Z,8.73
2019-05-30T23:44:11.839Z,9.33
2019-05-30T23:46:42.964Z,9.03
2019-05-30T23:49:14.760Z,8.70
2019-05-30T23:51:46.170Z,9.15
2019-05-30T23:54:17.425Z,9.05
2019-05-30T23:56:48.359Z,8.53
2019-05-30T23:59:19.561Z,7.97
